createdAt,value
2022-07-26T00:01:49.337Z,10.30
2022-07-26T00:04:21.077Z,10.30
2022-07-26T00:06:52.887Z,10.70
2022-07-26T00:09:24.897Z,10.30
2022-07-26T00:11:56.940Z,10.20
2022-07-26T00:14:28.617Z,10.70
2022-07-26T00:17:00.793Z,10.90
2022-07-26T00:19:32.572Z,11.10
2022-07-26T00:22:22.357Z,10.30
2022-07-26T00:24:54.073Z,10.40
2022-07-26T00:27:25.866Z,10.40
2022-07-26T00:29:57.658Z,11.00
2022-07-26T00:32:29.428Z,10.80
2022-07-26T00:35:01.145Z,10.60
2022-07-26T00:37:33.165Z,11.60
2022-07-26T00:40:07.243Z,10.90
2022-07-26T00:42:41.416Z,11.00
2022-07-26T00:45:15.287Z,11.60
2022-07-26T00:47:47.485Z,11.00
2022-07-26T00:50:21.170Z,11.20
2022-07-26T00:52:54.409Z,11.40
2022-07-26T00:55:26.268Z,10.80
2022-07-26T00:57:58.136Z,11.30
2022-07-26T01:00:30.058Z,11.00
2022-07-26T01:03:02.757Z,10.60
2022-07-26T01:05:35.526Z,10.90
2022-07-26T01:08:07.662Z,11.00
2022-07-26T01:10:40.170Z,11.60
2022-07-26T01:13:12.378Z,11.10
2022-07-26T01:15:44.052Z,10.60
2022-07-26T01:18:15.890Z,11.20
2022-07-26T01:20:49.694Z,10.50
2022-07-26T01:23:22.095Z,11.40
2022-07-26T01:25:53.706Z,11.00
2022-07-26T01:28:25.332Z,11.80
2022-07-26T01:30:57.077Z,11.80
2022-07-26T01:33:28.955Z,12.90
2022-07-26T01:36:00.579Z,14.50
2022-07-26T01:38:32.221Z,14.10
2022-07-26T01:41:03.876Z,14.10
2022-07-26T01:43:35.805Z,15.50
2022-07-26T01:46:08.923Z,15.40
2022-07-26T01:48:41.471Z,15.10
2022-07-26T01:51:13.139Z,14.90
2022-07-26T01:53:45.909Z,14.40
2022-07-26T01:56:17.720Z,13.70
2022-07-26T01:58:49.752Z,14.00
2022-07-26T02:01:39.501Z,12.70
2022-07-26T02:04:32.023Z,13.80
2022-07-26T02:07:05.566Z,13.50
2022-07-26T02:09:44.771Z,15.40
2022-07-26T02:12:18.888Z,15.40
2022-07-26T02:14:50.641Z,15.70
2022-07-26T02:17:22.334Z,17.40
2022-07-26T02:19:54.057Z,16.60
2022-07-26T02:22:25.825Z,15.30
2022-07-26T02:25:04.460Z,15.60
2022-07-26T02:27:36.814Z,15.80
2022-07-26T02:30:14.795Z,15.00
2022-07-26T02:32:46.397Z,14.60
2022-07-26T02:35:18.152Z,14.40
2022-07-26T02:37:49.784Z,14.20
2022-07-26T02:40:21.675Z,12.90
2022-07-26T02:42:53.385Z,11.10
2022-07-26T02:45:25.347Z,11.00
2022-07-26T02:47:58.189Z,9.50
2022-07-26T02:50:31.048Z,7.80
2022-07-26T02:53:02.863Z,7.00
2022-07-26T02:55:34.810Z,6.30
2022-07-26T02:58:06.730Z,6.00
2022-07-26T03:00:38.482Z,6.60
2022-07-26T03:03:14.244Z,5.90
2022-07-26T03:05:46.285Z,5.80
2022-07-26T03:08:17.831Z,6.00
2022-07-26T03:10:49.786Z,5.10
2022-07-26T03:13:21.663Z,4.80
2022-07-26T03:15:53.533Z,5.00
2022-07-26T03:18:25.402Z,4.50
2022-07-26T03:20:57.145Z,4.20
2022-07-26T03:23:28.957Z,4.50
2022-07-26T03:26:01.749Z,4.80
2022-07-26T03:28:34.829Z,4.50
2022-07-26T03:31:06.586Z,4.50
2022-07-26T03:33:38.304Z,4.10
2022-07-26T03:36:15.423Z,4.00
2022-07-26T03:38:47.547Z,4.40
2022-07-26T03:41:19.250Z,4.30
2022-07-26T03:43:50.877Z,3.80
2022-07-26T03:46:22.860Z,3.80
2022-07-26T03:48:54.707Z,4.00
2022-07-26T03:51:26.752Z,4.00
2022-07-26T03:53:58.449Z,3.80
2022-07-26T03:56:32.049Z,3.40
2022-07-26T03:59:06.056Z,3.40
2022-07-26T04:01:41.834Z,3.50
2022-07-26T04:04:15.807Z,3.20
2022-07-26T04:06:48.628Z,3.40
2022-07-26T04:09:20.377Z,3.20
2022-07-26T04:11:52.124Z,3.10
2022-07-26T04:14:23.897Z,2.90
2022-07-26T04:16:55.579Z,2.80
2022-07-26T04:19:27.343Z,2.90
2022-07-26T04:21:58.944Z,3.10
2022-07-26T04:24:30.585Z,3.10
2022-07-26T04:27:02.221Z,3.00
2022-07-26T04:29:33.798Z,2.80
2022-07-26T04:32:05.706Z,2.70
2022-07-26T04:34:37.356Z,3.20
2022-07-26T04:37:09.069Z,3.00
2022-07-26T04:39:40.755Z,2.70
2022-07-26T04:42:12.432Z,2.70
2022-07-26T04:44:43.962Z,3.40
2022-07-26T04:47:15.608Z,3.60
2022-07-26T04:49:47.354Z,2.60
2022-07-26T04:52:19.028Z,3.00
2022-07-26T04:54:50.633Z,2.90
2022-07-26T04:57:22.338Z,3.10
2022-07-26T05:00:10.099Z,3.20
2022-07-26T05:02:45.713Z,2.70
2022-07-26T05:05:17.897Z,3.20
2022-07-26T05:07:53.503Z,2.80
2022-07-26T05:10:31.004Z,2.70
2022-07-26T05:13:04.063Z,2.30
2022-07-26T05:15:37.025Z,3.20
2022-07-26T05:18:13.673Z,2.90
2022-07-26T05:20:45.445Z,2.40
2022-07-26T05:23:17.033Z,2.80
2022-07-26T05:25:48.797Z,2.60
2022-07-26T05:28:20.369Z,2.80
2022-07-26T05:30:52.333Z,2.80
2022-07-26T05:33:24.490Z,2.90
2022-07-26T05:35:56.182Z,2.40
2022-07-26T05:38:27.893Z,2.60
2022-07-26T05:40:59.512Z,2.70
2022-07-26T05:43:40.888Z,2.70
2022-07-26T05:46:18.371Z,2.70
2022-07-26T05:48:50.308Z,2.80
2022-07-26T05:51:22.003Z,2.60
2022-07-26T05:53:53.667Z,3.20
2022-07-26T05:56:25.374Z,2.40
2022-07-26T05:58:57.221Z,2.50
2022-07-26T06:01:32.467Z,2.30
2022-07-26T06:04:05.155Z,2.70
2022-07-26T06:06:37.249Z,2.90
2022-07-26T06:09:09.284Z,3.30
2022-07-26T06:11:41.006Z,3.20
2022-07-26T06:14:13.248Z,2.90
2022-07-26T06:16:45.309Z,2.70
2022-07-26T06:19:17.755Z,3.20
2022-07-26T06:21:49.404Z,3.60
2022-07-26T06:24:21.109Z,3.10
2022-07-26T06:26:57.061Z,3.40
2022-07-26T06:29:32.229Z,2.80
2022-07-26T06:32:04.433Z,2.90
2022-07-26T06:34:36.201Z,2.90
2022-07-26T06:37:07.835Z,2.90
2022-07-26T06:39:39.465Z,2.90
2022-07-26T06:42:11.109Z,2.80
2022-07-26T06:44:43.073Z,3.10
2022-07-26T06:47:14.657Z,2.80
2022-07-26T06:49:46.558Z,2.50
2022-07-26T06:52:18.286Z,2.60
2022-07-26T06:54:50.520Z,2.50
2022-07-26T06:57:22.128Z,2.60
2022-07-26T06:59:53.810Z,2.90
2022-07-26T07:02:26.480Z,2.30
2022-07-26T07:04:58.389Z,2.60
2022-07-26T07:07:29.992Z,2.50
2022-07-26T07:10:01.688Z,2.60
2022-07-26T07:12:33.446Z,2.20
2022-07-26T07:15:05.862Z,2.60
2022-07-26T07:17:37.901Z,2.60
2022-07-26T07:20:13.493Z,2.50
2022-07-26T07:22:45.173Z,3.00
2022-07-26T07:25:17.284Z,2.50
2022-07-26T07:27:49.127Z,2.60
2022-07-26T07:30:23.044Z,2.40
2022-07-26T07:32:55.693Z,2.40
2022-07-26T07:35:28.396Z,2.20
2022-07-26T07:38:03.964Z,2.60
2022-07-26T07:40:35.866Z,2.60
2022-07-26T07:43:07.629Z,2.50
2022-07-26T07:45:39.417Z,2.30
2022-07-26T07:48:11.177Z,2.40
2022-07-26T07:50:43.173Z,2.20
2022-07-26T07:53:14.976Z,2.40
2022-07-26T07:55:47.050Z,2.30
2022-07-26T07:58:20.932Z,2.30
2022-07-26T08:00:52.687Z,2.10
2022-07-26T08:03:24.626Z,2.50
2022-07-26T08:06:13.041Z,2.20
2022-07-26T08:08:45.234Z,2.40
2022-07-26T08:11:20.209Z,2.20
2022-07-26T08:13:52.586Z,2.10
2022-07-26T08:16:24.467Z,2.00
2022-07-26T08:18:57.113Z,2.20
2022-07-26T08:21:29.960Z,2.10
2022-07-26T08:26:51.545Z,2.30
2022-07-26T08:29:23.094Z,2.50
2022-07-26T08:31:54.923Z,2.40
2022-07-26T08:34:26.518Z,2.00
2022-07-26T08:37:15.922Z,2.50
2022-07-26T08:39:49.921Z,2.10
2022-07-26T08:42:23.233Z,2.00
2022-07-26T08:44:55.533Z,2.00
2022-07-26T08:47:37.710Z,2.20
2022-07-26T08:50:12.502Z,1.80
2022-07-26T08:52:45.093Z,2.10
2022-07-26T08:55:21.832Z,2.40
2022-07-26T08:57:53.648Z,2.40
2022-07-26T09:00:29.762Z,2.50
2022-07-26T09:03:02.972Z,2.10
2022-07-26T09:05:36.542Z,2.50
2022-07-26T09:08:26.797Z,2.90
2022-07-26T09:10:59.466Z,2.20
2022-07-26T09:13:54.852Z,2.10
2022-07-26T09:16:26.926Z,2.50
2022-07-26T09:19:14.979Z,2.40
2022-07-26T09:21:47.153Z,1.80
2022-07-26T09:24:32.965Z,2.30
2022-07-26T09:27:07.028Z,2.20
2022-07-26T09:29:50.216Z,2.10
2022-07-26T09:32:23.841Z,2.20
2022-07-26T09:34:59.254Z,2.10
2022-07-26T09:37:38.933Z,2.20
2022-07-26T09:40:15.896Z,2.10
2022-07-26T09:42:59.091Z,2.20
2022-07-26T09:45:32.809Z,2.10
2022-07-26T09:48:05.620Z,2.40
2022-07-26T09:50:37.882Z,1.90
2022-07-26T09:53:11.469Z,2.20
2022-07-26T09:58:45.965Z,2.30
2022-07-26T10:01:17.759Z,2.00
2022-07-26T10:03:51.449Z,1.80
2022-07-26T10:06:27.254Z,1.90
2022-07-26T10:09:02.533Z,1.90
2022-07-26T10:11:38.012Z,2.00
2022-07-26T10:14:40.618Z,1.60
2022-07-26T10:17:46.379Z,1.40
2022-07-26T10:20:46.700Z,1.40
2022-07-26T10:26:07.329Z,1.00
2022-07-26T10:28:42.937Z,0.90
2022-07-26T10:31:30.656Z,1.30
2022-07-26T10:34:04.329Z,1.50
2022-07-26T10:36:39.234Z,1.10
2022-07-26T10:39:14.253Z,1.30
2022-07-26T10:41:48.610Z,1.20
2022-07-26T10:44:26.113Z,1.00
2022-07-26T10:47:11.387Z,1.30
2022-07-26T10:49:45.531Z,1.30
2022-07-26T10:52:19.726Z,1.50
2022-07-26T10:55:20.200Z,1.30
2022-07-26T10:57:51.884Z,1.00
2022-07-26T11:00:26.350Z,1.10
2022-07-26T11:03:00.947Z,1.50
2022-07-26T11:05:35.011Z,1.30
2022-07-26T11:08:10.307Z,1.40
2022-07-26T11:10:43.669Z,1.40
2022-07-26T11:13:18.230Z,1.50
2022-07-26T11:15:52.651Z,1.60
2022-07-26T11:18:27.976Z,1.80
2022-07-26T11:21:10.212Z,1.40
2022-07-26T11:23:44.306Z,1.10
2022-07-26T11:26:18.489Z,1.40
2022-07-26T11:29:01.088Z,1.20
2022-07-26T11:31:55.583Z,1.20
2022-07-26T11:34:35.795Z,1.20
2022-07-26T11:37:07.802Z,1.20
2022-07-26T11:39:39.548Z,0.90
2022-07-26T11:42:13.309Z,1.20
2022-07-26T11:44:47.783Z,1.10
2022-07-26T11:47:24.403Z,1.20
2022-07-26T11:50:14.372Z,1.30
2022-07-26T11:52:50.370Z,1.10
2022-07-26T11:55:30.532Z,1.50
2022-07-26T11:58:08.040Z,1.00
2022-07-26T12:00:40.009Z,1.20
2022-07-26T12:03:11.727Z,1.20
2022-07-26T12:05:43.761Z,1.10
2022-07-26T12:08:15.501Z,1.00
2022-07-26T12:10:56.269Z,1.20
2022-07-26T12:13:27.866Z,1.20
2022-07-26T12:16:11.825Z,1.00
2022-07-26T12:18:53.218Z,0.80
2022-07-26T12:21:43.893Z,1.00
2022-07-26T12:24:34.379Z,1.00
2022-07-26T12:27:11.021Z,0.70
2022-07-26T12:29:44.454Z,1.10
2022-07-26T12:32:18.496Z,1.10
2022-07-26T12:35:01.911Z,1.20
2022-07-26T12:37:40.692Z,1.10
2022-07-26T12:40:16.185Z,1.20
2022-07-26T12:43:01.115Z,1.10
2022-07-26T12:45:35.061Z,0.90
2022-07-26T12:48:12.038Z,1.30
2022-07-26T12:50:43.697Z,1.00
2022-07-26T12:53:15.573Z,1.20
2022-07-26T12:55:47.208Z,1.10
2022-07-26T12:58:18.788Z,1.10
2022-07-26T13:00:50.519Z,1.00
2022-07-26T13:03:22.286Z,1.00
2022-07-26T13:05:53.873Z,0.90
2022-07-26T13:08:25.862Z,1.00
2022-07-26T13:11:00.127Z,1.20
2022-07-26T13:13:32.516Z,1.00
2022-07-26T13:16:09.585Z,1.00
2022-07-26T13:18:43.413Z,0.70
2022-07-26T13:21:15.307Z,1.30
2022-07-26T13:23:47.093Z,1.00
2022-07-26T13:26:19.176Z,1.00
2022-07-26T13:28:52.882Z,1.40
2022-07-26T13:31:24.642Z,1.10
2022-07-26T13:33:56.738Z,1.80
2022-07-26T13:36:28.388Z,1.40
2022-07-26T13:39:00.233Z,0.90
2022-07-26T13:41:32.284Z,1.10
2022-07-26T13:44:08.400Z,1.20
2022-07-26T13:46:40.457Z,1.20
2022-07-26T13:49:12.719Z,1.00
2022-07-26T13:52:00.033Z,1.20
2022-07-26T13:54:33.685Z,0.90
2022-07-26T13:57:07.800Z,1.00
2022-07-26T13:59:39.422Z,1.00
2022-07-26T14:02:11.476Z,0.90
2022-07-26T14:04:43.765Z,1.20
2022-07-26T14:07:15.305Z,1.10
2022-07-26T14:09:47.044Z,1.10
2022-07-26T14:12:18.800Z,1.20
2022-07-26T14:14:50.598Z,1.00
2022-07-26T14:17:22.253Z,1.00
2022-07-26T14:19:53.929Z,1.20
2022-07-26T14:22:25.795Z,1.30
2022-07-26T14:24:57.469Z,1.20
2022-07-26T14:27:28.995Z,0.80
2022-07-26T14:30:00.635Z,1.20
2022-07-26T14:32:32.386Z,1.30
2022-07-26T14:35:04.114Z,1.00
2022-07-26T14:37:44.233Z,0.90
2022-07-26T14:40:18.867Z,1.10
2022-07-26T14:42:50.526Z,1.00
2022-07-26T14:45:22.417Z,1.00
2022-07-26T14:47:54.108Z,1.00
2022-07-26T14:50:26.152Z,1.10
2022-07-26T14:52:57.876Z,1.00
2022-07-26T14:55:30.634Z,0.90
2022-07-26T14:58:02.358Z,1.00
2022-07-26T15:00:34.111Z,0.80
2022-07-26T15:03:05.798Z,1.10
2022-07-26T15:05:37.589Z,1.00
2022-07-26T15:08:09.615Z,0.70
2022-07-26T15:10:41.315Z,0.90
2022-07-26T15:13:14.970Z,1.10
2022-07-26T15:15:46.575Z,0.90
2022-07-26T15:18:18.328Z,1.00
2022-07-26T15:20:50.171Z,1.10
2022-07-26T15:23:22.218Z,0.80
2022-07-26T15:25:54.144Z,1.10
2022-07-26T15:28:25.866Z,1.00
2022-07-26T15:30:57.498Z,1.00
2022-07-26T15:33:29.292Z,0.80
2022-07-26T15:36:05.697Z,1.30
2022-07-26T15:38:37.818Z,1.40
2022-07-26T15:41:09.623Z,1.60
2022-07-26T15:43:44.399Z,1.40
2022-07-26T15:46:20.711Z,1.30
2022-07-26T15:48:54.785Z,1.20
2022-07-26T15:51:27.418Z,1.00
2022-07-26T15:53:59.019Z,1.20
2022-07-26T15:56:30.743Z,1.20
2022-07-26T15:59:02.471Z,1.00
2022-07-26T16:01:34.340Z,0.80
2022-07-26T16:04:07.421Z,1.10
2022-07-26T16:06:39.260Z,1.00
2022-07-26T16:09:17.624Z,1.20
2022-07-26T16:11:50.710Z,1.10
2022-07-26T16:14:22.371Z,1.10
2022-07-26T16:16:54.158Z,0.90
2022-07-26T16:19:25.742Z,1.30
2022-07-26T16:21:57.449Z,1.20
2022-07-26T16:24:29.177Z,1.10
2022-07-26T16:27:01.001Z,1.20
2022-07-26T16:29:32.760Z,0.90
2022-07-26T16:32:04.473Z,1.30
2022-07-26T16:34:36.216Z,1.40
2022-07-26T16:37:08.127Z,1.20
2022-07-26T16:39:40.241Z,1.30
2022-07-26T16:42:11.972Z,1.20
2022-07-26T16:44:43.794Z,1.40
2022-07-26T16:47:15.839Z,1.20
2022-07-26T16:49:47.436Z,1.10
2022-07-26T16:52:19.206Z,1.20
2022-07-26T16:54:50.916Z,1.40
2022-07-26T16:57:22.672Z,1.40
2022-07-26T16:59:54.445Z,1.30
2022-07-26T17:02:26.204Z,1.40
2022-07-26T17:04:58.868Z,1.60
2022-07-26T17:07:32.124Z,1.70
2022-07-26T17:10:05.148Z,1.40
2022-07-26T17:12:38.252Z,1.30
2022-07-26T17:15:11.677Z,1.50
2022-07-26T17:17:48.261Z,1.40
2022-07-26T17:20:20.803Z,1.90
2022-07-26T17:22:52.509Z,1.30
2022-07-26T17:25:24.295Z,1.50
2022-07-26T17:27:55.938Z,1.20
2022-07-26T17:30:28.180Z,1.70
2022-07-26T17:32:59.945Z,1.80
2022-07-26T17:35:31.653Z,1.80
2022-07-26T17:38:03.358Z,1.70
2022-07-26T17:40:35.258Z,1.90
2022-07-26T17:43:07.025Z,1.80
2022-07-26T17:45:38.709Z,1.80
2022-07-26T17:48:10.571Z,1.70
2022-07-26T17:50:42.178Z,1.60
2022-07-26T17:53:13.800Z,1.80
2022-07-26T17:55:45.478Z,1.90
2022-07-26T17:58:17.229Z,1.40
2022-07-26T18:00:49.055Z,1.90
2022-07-26T18:03:21.470Z,1.60
2022-07-26T18:05:53.226Z,1.40
2022-07-26T18:08:27.238Z,1.80
2022-07-26T18:10:59.444Z,1.60
2022-07-26T18:13:31.375Z,1.50
2022-07-26T18:16:05.945Z,1.40
2022-07-26T18:18:38.257Z,1.40
2022-07-26T18:21:10.125Z,2.10
2022-07-26T18:23:54.808Z,1.60
2022-07-26T18:26:34.757Z,1.60
2022-07-26T18:29:06.710Z,1.80
2022-07-26T18:31:39.071Z,1.80
2022-07-26T18:34:10.934Z,1.90
2022-07-26T18:36:42.591Z,2.40
2022-07-26T18:39:14.849Z,2.00
2022-07-26T18:41:46.749Z,2.00
2022-07-26T18:44:19.496Z,2.40
2022-07-26T18:46:52.542Z,2.40
2022-07-26T18:49:27.252Z,2.10
2022-07-26T18:52:08.300Z,2.80
2022-07-26T18:54:40.600Z,2.40
2022-07-26T18:57:12.208Z,2.10
2022-07-26T18:59:44.008Z,2.20
2022-07-26T19:02:15.790Z,2.30
2022-07-26T19:04:47.407Z,2.40
2022-07-26T19:07:19.148Z,2.50
2022-07-26T19:09:56.368Z,2.40
2022-07-26T19:12:30.385Z,2.20
2022-07-26T19:15:02.687Z,2.20
2022-07-26T19:17:35.238Z,2.60
2022-07-26T19:20:10.030Z,2.50
2022-07-26T19:22:44.661Z,2.60
2022-07-26T19:25:17.555Z,2.30
2022-07-26T19:27:49.284Z,2.70
2022-07-26T19:30:21.118Z,2.50
2022-07-26T19:32:52.649Z,3.20
2022-07-26T19:35:24.522Z,3.30
2022-07-26T19:37:56.218Z,3.10
2022-07-26T19:40:28.530Z,3.60
2022-07-26T19:43:00.144Z,3.20
2022-07-26T19:45:32.189Z,2.60
2022-07-26T19:48:03.813Z,2.70
2022-07-26T19:50:35.652Z,2.70
2022-07-26T19:53:07.432Z,2.90
2022-07-26T19:55:41.861Z,2.90
2022-07-26T19:58:13.630Z,3.10
2022-07-26T20:00:45.275Z,3.70
2022-07-26T20:03:17.246Z,3.70
2022-07-26T20:05:48.940Z,4.50
2022-07-26T20:08:20.719Z,4.40
2022-07-26T20:10:52.858Z,3.90
2022-07-26T20:13:24.670Z,4.30
2022-07-26T20:15:56.378Z,3.90
2022-07-26T20:18:30.824Z,3.80
2022-07-26T20:21:02.636Z,3.80
2022-07-26T20:23:34.465Z,3.60
2022-07-26T20:26:06.140Z,3.20
2022-07-26T20:28:37.823Z,3.50
2022-07-26T20:31:09.719Z,3.50
2022-07-26T20:33:41.532Z,3.50
2022-07-26T20:36:13.168Z,3.60
2022-07-26T20:38:49.508Z,3.90
2022-07-26T20:41:25.092Z,3.40
2022-07-26T20:43:57.701Z,3.60
2022-07-26T20:46:30.883Z,3.50
2022-07-26T20:49:02.568Z,3.20
2022-07-26T20:51:34.375Z,3.40
2022-07-26T20:54:06.464Z,3.10
2022-07-26T20:56:38.585Z,3.10
2022-07-26T20:59:10.412Z,2.90
2022-07-26T21:01:44.058Z,2.80
2022-07-26T21:04:15.931Z,3.10
2022-07-26T21:06:48.018Z,3.10
2022-07-26T21:09:20.665Z,3.20
2022-07-26T21:11:52.294Z,3.20
2022-07-26T21:14:23.952Z,3.10
2022-07-26T21:16:55.837Z,3.00
2022-07-26T21:19:27.688Z,3.10
2022-07-26T21:22:00.535Z,3.40
2022-07-26T21:24:32.261Z,3.40
2022-07-26T21:27:04.466Z,3.30
2022-07-26T21:29:37.915Z,3.80
2022-07-26T21:32:11.339Z,3.30
2022-07-26T21:34:43.215Z,3.60
2022-07-26T21:37:15.071Z,3.70
2022-07-26T21:39:46.719Z,3.20
2022-07-26T21:42:18.537Z,3.50
2022-07-26T21:44:50.189Z,3.50
2022-07-26T21:47:21.974Z,3.90
2022-07-26T21:49:53.550Z,3.30
2022-07-26T21:52:25.279Z,3.70
2022-07-26T21:54:57.035Z,3.70
2022-07-26T21:57:28.724Z,3.50
2022-07-26T22:00:00.303Z,3.50
2022-07-26T22:02:32.224Z,3.40
2022-07-26T22:05:04.188Z,3.80
2022-07-26T22:07:35.958Z,3.30
2022-07-26T22:10:11.221Z,3.60
2022-07-26T22:12:42.887Z,3.60
2022-07-26T22:15:14.707Z,3.30
2022-07-26T22:17:46.416Z,3.60
2022-07-26T22:20:20.064Z,4.00
2022-07-26T22:22:51.820Z,3.30
2022-07-26T22:25:23.575Z,3.60
2022-07-26T22:27:55.464Z,3.60
2022-07-26T22:30:28.598Z,3.50
2022-07-26T22:33:01.823Z,3.60
2022-07-26T22:35:35.989Z,3.80
2022-07-26T22:38:11.279Z,3.40
2022-07-26T22:40:44.563Z,3.70
2022-07-26T22:43:16.498Z,3.80
2022-07-26T22:45:48.251Z,3.10
2022-07-26T22:48:20.059Z,3.90
2022-07-26T22:50:51.887Z,3.10
2022-07-26T22:53:23.642Z,3.50
2022-07-26T22:55:55.318Z,3.40
2022-07-26T22:58:26.963Z,3.30
2022-07-26T23:00:58.838Z,3.10
2022-07-26T23:03:30.746Z,3.50
2022-07-26T23:06:05.023Z,3.20
2022-07-26T23:08:51.817Z,3.10
2022-07-26T23:11:23.359Z,3.40
2022-07-26T23:13:58.830Z,3.50
2022-07-26T23:16:30.907Z,3.50
2022-07-26T23:19:02.587Z,3.10
2022-07-26T23:21:34.209Z,3.60
2022-07-26T23:24:06.165Z,3.40
2022-07-26T23:26:38.253Z,3.40
2022-07-26T23:29:10.389Z,3.70
2022-07-26T23:31:42.695Z,3.70
2022-07-26T23:34:14.876Z,3.50
2022-07-26T23:36:46.522Z,3.60
2022-07-26T23:39:18.336Z,4.20
2022-07-26T23:41:49.914Z,4.20
2022-07-26T23:44:21.599Z,3.80
2022-07-26T23:46:53.259Z,4.10
2022-07-26T23:49:25.124Z,4.20
2022-07-26T23:51:56.877Z,4.30
2022-07-26T23:54:28.939Z,3.80
2022-07-26T23:57:00.556Z,3.90
2022-07-26T23:59:32.241Z,4.20
